Time;durP1;ratioP1;P1;durP2;ratioP2;P2;SDS_P1;SDS_P2;PMS_P1;PMS_P2;Temp;Humidity;BMP_temperature;BMP_pressure;BME280_temperature;BME280_humidity;BME280_pressure;Samples;Min_cycle;Max_cycle;Signal;HPM_P1;HPM_P2
2022/03/04 00:00:17;;;;;;;18.55;12.20;;;;;;;-0.39;100.00;99813.25;1728425;82;21089;-82
2022/03/04 00:02:44;;;;;;;14.00;9.60;;;;;;;-0.38;100.00;99810.66;1734183;82;21229;-83
2022/03/04 00:05:12;;;;;;;18.00;10.78;;;;;;;-0.38;100.00;99809.38;1734198;82;21093;-84
2022/03/04 00:07:39;;;;;;;16.70;11.60;;;;;;;-0.37;100.00;99805.92;1733837;82;21062;-83
2022/03/04 00:10:06;;;;;;;16.97;11.03;;;;;;;-0.37;100.00;99800.81;1733989;82;21844;-83
2022/03/04 00:12:33;;;;;;;17.02;11.65;;;;;;;-0.36;100.00;99805.00;1727620;82;21105;-83
2022/03/04 00:15:01;;;;;;;18.87;12.20;;;;;;;-0.35;100.00;99799.45;1707786;84;21113;-83
2022/03/04 00:17:30;;;;;;;17.73;12.30;;;;;;;-0.36;100.00;99797.33;1707432;82;21011;-84
2022/03/04 00:19:57;;;;;;;18.35;11.30;;;;;;;-0.36;100.00;99803.72;1701007;83;21018;-82
2022/03/04 00:22:24;;;;;;;15.05;10.32;;;;;;;-0.33;100.00;99806.16;1693589;83;21089;-83
2022/03/04 00:24:51;;;;;;;15.45;10.93;;;;;;;-0.33;100.00;99804.06;1714915;82;21053;-82
2022/03/04 00:27:18;;;;;;;19.52;11.65;;;;;;;-0.32;100.00;99808.25;1714549;82;21455;-83
2022/03/04 00:29:44;;;;;;;16.48;11.20;;;;;;;-0.33;100.00;99795.92;1714495;82;21001;-82
2022/03/04 00:32:11;;;;;;;17.45;10.28;;;;;;;-0.34;100.00;99800.66;1693532;83;21064;-82
2022/03/04 00:34:39;;;;;;;16.67;11.05;;;;;;;-0.32;100.00;99801.43;1714519;82;21109;-83
2022/03/04 00:37:08;;;;;;;15.95;10.53;;;;;;;-0.30;100.00;99806.94;1714403;82;21029;-82
2022/03/04 00:39:35;;;;;;;14.75;9.85;;;;;;;-0.30;100.00;99793.67;1714221;82;21237;-82
2022/03/04 00:42:02;;;;;;;17.07;10.58;;;;;;;-0.28;100.00;99800.84;1709560;82;21132;-83
2022/03/04 00:44:29;;;;;;;17.42;10.85;;;;;;;-0.28;100.00;99801.31;1712833;83;21713;-81
2022/03/04 00:46:55;;;;;;;16.93;11.00;;;;;;;-0.28;100.00;99805.97;1692046;83;21641;-82
2022/03/04 00:49:25;;;;;;;16.85;11.03;;;;;;;-0.28;100.00;99808.98;1691326;83;21148;-81
2022/03/04 00:51:52;;;;;;;16.35;10.08;;;;;;;-0.27;100.00;99809.34;1691448;83;21211;-81
2022/03/04 00:54:19;;;;;;;17.00;10.53;;;;;;;-0.27;100.00;99810.63;1671422;83;21061;-81
2022/03/04 00:56:48;;;;;;;16.10;9.70;;;;;;;-0.27;100.00;99802.95;1697530;82;21105;-82
2022/03/04 00:59:16;;;;;;;16.27;10.40;;;;;;;-0.27;100.00;99808.91;1714298;82;21033;-82
2022/03/04 01:01:44;;;;;;;13.95;9.13;;;;;;;-0.27;100.00;99813.18;1714723;82;21072;-81
2022/03/04 01:04:11;;;;;;;13.45;8.98;;;;;;;-0.26;100.00;99813.14;1693466;82;21041;-83
2022/03/04 01:06:39;;;;;;;15.70;9.98;;;;;;;-0.27;100.00;99805.50;1693580;82;21068;-82
2022/03/04 01:09:06;;;;;;;15.13;10.15;;;;;;;-0.28;100.00;99800.84;1714281;82;21097;-83
2022/03/04 01:11:33;;;;;;;15.15;9.73;;;;;;;-0.27;100.00;99808.06;1714848;82;21080;-85
2022/03/04 01:14:00;;;;;;;16.00;9.65;;;;;;;-0.27;100.00;99808.91;1711847;82;21072;-82
2022/03/04 01:16:27;;;;;;;13.75;9.15;;;;;;;-0.27;100.00;99806.78;1746127;82;21150;-82
2022/03/04 01:18:54;;;;;;;14.90;9.03;;;;;;;-0.27;100.00;99800.38;1746202;82;21139;-82
2022/03/04 01:21:21;;;;;;;14.73;9.55;;;;;;;-0.27;100.00;99802.52;1719481;82;21545;-81
2022/03/04 01:23:48;;;;;;;13.60;9.93;;;;;;;-0.27;100.00;99791.43;1744748;82;21052;-83
2022/03/04 01:26:15;;;;;;;15.08;9.38;;;;;;;-0.28;100.00;99802.59;1746212;82;21318;-84
2022/03/04 01:28:42;;;;;;;15.68;9.68;;;;;;;-0.28;100.00;99799.56;1745588;82;21377;-82
2022/03/04 01:31:11;;;;;;;16.67;9.93;;;;;;;-0.27;100.00;99800.38;1745903;82;22043;-83
2022/03/04 01:33:39;;;;;;;14.63;10.70;;;;;;;-0.28;100.00;99811.08;1746119;82;21067;-82
2022/03/04 01:36:06;;;;;;;15.60;10.72;;;;;;;-0.28;100.00;99811.55;1745498;82;21106;-82
2022/03/04 01:38:33;;;;;;;16.27;11.90;;;;;;;-0.27;100.00;99812.75;1745537;82;21027;-83
2022/03/04 01:40:59;;;;;;;16.35;11.48;;;;;;;-0.27;100.00;99815.73;1745735;82;21202;-84
2022/03/04 01:43:26;;;;;;;18.30;12.65;;;;;;;-0.28;100.00;99817.94;1720104;82;21138;-81
2022/03/04 01:45:53;;;;;;;20.08;12.60;;;;;;;-0.27;100.00;99817.02;1746102;82;21051;-82
2022/03/04 01:48:22;;;;;;;19.17;12.30;;;;;;;-0.29;100.00;99808.59;1746432;82;21001;-82
2022/03/04 01:50:50;;;;;;;20.05;13.20;;;;;;;-0.30;100.00;99814.15;1745744;82;21106;-81
2022/03/04 01:53:19;;;;;;;21.00;14.25;;;;;;;-0.32;100.00;99811.66;1745329;82;21355;-81
2022/03/04 01:55:46;;;;;;;22.02;13.40;;;;;;;-0.31;100.00;99813.77;1720400;82;21102;-87
2022/03/04 01:58:13;;;;;;;20.32;13.32;;;;;;;-0.31;100.00;99812.48;1696956;82;21063;-85
2022/03/04 02:00:40;;;;;;;22.62;13.43;;;;;;;-0.33;100.00;99813.84;1746133;82;21095;-85
2022/03/04 02:03:11;;;;;;;22.15;13.93;;;;;;;-0.33;100.00;99812.55;1744757;82;21079;-81
2022/03/04 02:05:39;;;;;;;20.30;12.53;;;;;;;-0.33;100.00;99813.84;1720129;82;21704;-84
2022/03/04 02:08:06;;;;;;;22.67;14.03;;;;;;;-0.33;100.00;99809.18;1745738;82;21138;-83
2022/03/04 02:10:33;;;;;;;20.85;13.28;;;;;;;-0.33;100.00;99810.00;1747130;81;21711;-83
2022/03/04 02:13:00;;;;;;;17.52;12.05;;;;;;;-0.30;100.00;99814.61;1757075;81;21528;-85
2022/03/04 02:15:28;;;;;;;19.27;12.75;;;;;;;-0.31;100.00;99812.48;1734858;81;21120;-85
2022/03/04 02:17:54;;;;;;;19.15;12.37;;;;;;;-0.30;100.00;99806.94;1723287;81;21129;-84
2022/03/04 02:20:26;;;;;;;23.25;13.55;;;;;;;-0.29;100.00;99807.32;1727390;81;21735;-83
2022/03/04 02:22:51;;;;;;;19.50;12.93;;;;;;;-0.28;100.00;99808.98;1730145;81;21495;-84
2022/03/04 02:25:17;;;;;;;20.37;12.68;;;;;;;-0.29;100.00;99809.87;1727578;81;21010;-84
2022/03/04 02:27:45;;;;;;;19.23;12.37;;;;;;;-0.27;100.00;99808.06;1684556;81;21596;-84
2022/03/04 02:30:12;;;;;;;17.02;12.47;;;;;;;-0.26;100.00;99815.69;1721658;81;22976;-84
2022/03/04 02:32:39;;;;;;;17.90;12.00;;;;;;;-0.26;100.00;99810.58;1707082;82;21019;-83
2022/03/04 02:35:06;;;;;;;17.42;11.68;;;;;;;-0.25;100.00;99805.00;1757572;81;21042;-84
2022/03/04 02:37:35;;;;;;;18.92;11.83;;;;;;;-0.27;100.00;99811.90;1757950;81;21037;-83
2022/03/04 02:40:06;;;;;;;18.77;12.65;;;;;;;-0.26;100.00;99802.90;1711905;82;21033;-84
2022/03/04 02:42:33;;;;;;;16.93;12.23;;;;;;;-0.25;100.00;99805.00;1704409;82;21114;-83
2022/03/04 02:45:00;;;;;;;19.00;11.63;;;;;;;-0.24;100.00;99805.38;1757172;81;21058;-84
2022/03/04 02:47:28;;;;;;;17.75;12.28;;;;;;;-0.24;100.00;99798.98;1732228;81;21017;-83
2022/03/04 02:49:55;;;;;;;17.30;11.85;;;;;;;-0.24;100.00;99796.42;1746058;82;21786;-84
2022/03/04 02:52:21;;;;;;;18.35;12.03;;;;;;;-0.23;100.00;99795.53;1745882;82;21047;-83
2022/03/04 02:54:48;;;;;;;20.37;13.70;;;;;;;-0.24;100.00;99790.03;1718708;81;22122;-85
2022/03/04 02:57:15;;;;;;;17.60;11.60;;;;;;;-0.24;100.00;99806.20;1671527;84;21009;-86
2022/03/04 02:59:42;;;;;;;19.50;12.68;;;;;;;-0.23;100.00;99801.93;1716061;83;21789;-83
2022/03/04 03:02:08;;;;;;;19.48;12.70;;;;;;;-0.23;100.00;99794.25;1720517;82;21026;-83
2022/03/04 03:04:36;;;;;;;18.12;11.28;;;;;;;-0.23;100.00;99798.91;1745876;82;21083;-84
2022/03/04 03:07:03;;;;;;;18.62;11.50;;;;;;;-0.22;100.00;99799.76;1697309;82;21993;-84
2022/03/04 03:09:30;;;;;;;17.75;11.33;;;;;;;-0.23;100.00;99804.48;1756883;81;21057;-84
2022/03/04 03:11:57;;;;;;;21.73;13.22;;;;;;;-0.23;100.00;99807.05;1758387;81;21093;-83
2022/03/04 03:14:24;;;;;;;17.77;10.68;;;;;;;-0.24;100.00;99808.76;1712399;82;21073;-83
2022/03/04 03:16:50;;;;;;;17.62;11.57;;;;;;;-0.23;100.00;99804.48;1723240;82;21093;-83
2022/03/04 03:19:18;;;;;;;17.15;11.40;;;;;;;-0.25;100.00;99809.68;1698145;83;21124;-83
2022/03/04 03:21:45;;;;;;;20.08;12.37;;;;;;;-0.25;100.00;99819.07;1730446;82;21089;-84
2022/03/04 03:24:11;;;;;;;18.42;12.37;;;;;;;-0.25;100.00;99819.92;1730663;81;21027;-83
2022/03/04 03:26:38;;;;;;;18.50;12.33;;;;;;;-0.24;100.00;99819.45;1699978;81;21657;-84
2022/03/04 03:29:05;;;;;;;18.20;11.30;;;;;;;-0.25;100.00;99817.79;1726335;81;21820;-85
2022/03/04 03:31:32;;;;;;;17.55;11.48;;;;;;;-0.25;100.00;99817.36;1724432;81;21224;-83
2022/03/04 03:33:58;;;;;;;18.77;11.88;;;;;;;-0.24;100.00;99827.13;1724092;81;21092;-85
2022/03/04 03:36:26;;;;;;;19.17;12.20;;;;;;;-0.24;100.00;99822.02;1724795;82;21041;-84
2022/03/04 03:38:55;;;;;;;18.32;11.30;;;;;;;-0.24;100.00;99819.45;1724764;81;21499;-85
2022/03/04 03:41:22;;;;;;;19.00;11.65;;;;;;;-0.25;100.00;99823.75;1695880;83;21075;-83
2022/03/04 03:43:49;;;;;;;19.48;11.83;;;;;;;-0.24;100.00;99822.02;1724235;81;21295;-86
2022/03/04 03:46:16;;;;;;;21.12;13.22;;;;;;;-0.25;100.00;99833.99;1724547;81;21006;-85
2022/03/04 03:48:43;;;;;;;21.75;12.82;;;;;;;-0.24;100.00;99839.47;1724816;81;21096;-83
2022/03/04 03:51:10;;;;;;;20.75;13.68;;;;;;;-0.24;100.00;99830.97;1724251;81;21562;-85
2022/03/04 03:53:38;;;;;;;21.87;12.55;;;;;;;-0.24;100.00;99827.95;1724551;81;21049;-81
2022/03/04 03:56:05;;;;;;;19.50;12.13;;;;;;;-0.23;100.00;99836.02;1724644;81;21831;-81
2022/03/04 03:58:32;;;;;;;22.70;14.05;;;;;;;-0.22;100.00;99827.91;1724928;81;21601;-82
2022/03/04 04:00:59;;;;;;;19.77;12.95;;;;;;;-0.21;100.00;99834.69;1724532;81;21570;-82
2022/03/04 04:03:26;;;;;;;17.32;11.75;;;;;;;-0.20;100.00;99844.85;1705732;83;21960;-81
2022/03/04 04:05:52;;;;;;;19.73;12.65;;;;;;;-0.20;100.00;99841.47;1704936;82;21596;-81
2022/03/04 04:08:19;;;;;;;20.10;12.43;;;;;;;-0.18;100.00;99840.51;1695957;83;21350;-82
2022/03/04 04:10:46;;;;;;;20.80;13.00;;;;;;;-0.18;100.00;99848.61;1695489;83;21079;-83
2022/03/04 04:13:14;;;;;;;21.00;11.63;;;;;;;-0.19;100.00;99840.13;1696695;82;21053;-82
2022/03/04 04:15:42;;;;;;;19.20;13.18;;;;;;;-0.18;100.00;99843.06;1694271;83;21552;-82
2022/03/04 04:18:08;;;;;;;20.02;12.40;;;;;;;-0.18;100.00;99848.19;1701030;82;21526;-83
2022/03/04 04:20:35;;;;;;;16.75;11.30;;;;;;;-0.19;100.00;99844.39;1696680;82;21703;-82
2022/03/04 04:23:03;;;;;;;18.70;12.13;;;;;;;-0.18;100.00;99849.47;1692529;83;21037;-81
2022/03/04 04:25:29;;;;;;;20.12;11.80;;;;;;;-0.18;100.00;99846.91;1692695;83;21037;-81
2022/03/04 04:27:56;;;;;;;18.27;11.48;;;;;;;-0.19;100.00;99852.91;1692683;83;21589;-82
2022/03/04 04:30:25;;;;;;;18.20;11.78;;;;;;;-0.17;100.00;99845.16;1720607;82;21068;-84
2022/03/04 04:32:51;;;;;;;17.20;11.03;;;;;;;-0.17;100.00;99850.28;1700022;82;21237;-81
2022/03/04 04:35:18;;;;;;;16.30;10.93;;;;;;;-0.16;100.00;99854.51;1726708;81;20955;-81
2022/03/04 04:37:45;;;;;;;18.17;11.75;;;;;;;-0.15;100.00;99856.17;1675113;82;21108;-82
2022/03/04 04:40:12;;;;;;;17.70;11.15;;;;;;;-0.16;100.00;99853.23;1715951;82;21083;-82
2022/03/04 04:42:39;;;;;;;16.05;10.82;;;;;;;-0.16;100.00;99854.05;1701285;82;21140;-81
2022/03/04 04:45:08;;;;;;;17.42;11.28;;;;;;;-0.13;100.00;99853.54;1700799;82;21144;-82
2022/03/04 04:47:35;;;;;;;20.77;12.05;;;;;;;-0.14;100.00;99857.84;1672911;82;21096;-80
2022/03/04 04:50:02;;;;;;;19.82;12.07;;;;;;;-0.12;100.00;99855.20;1679144;82;21486;-81
2022/03/04 04:52:29;;;;;;;22.60;13.03;;;;;;;-0.11;100.00;99856.87;1682971;82;21108;-81
2022/03/04 04:54:56;;;;;;;18.60;11.85;;;;;;;-0.10;100.00;99856.80;1701623;82;21128;-82
2022/03/04 04:57:23;;;;;;;18.73;11.68;;;;;;;-0.10;100.00;99845.28;1701033;82;21224;-81
2022/03/04 04:59:49;;;;;;;20.85;12.82;;;;;;;-0.08;100.00;99858.03;1700984;82;21179;-80
2022/03/04 05:02:17;;;;;;;19.17;12.15;;;;;;;-0.08;100.00;99856.29;1701047;82;21072;-82
2022/03/04 05:04:44;;;;;;;17.87;12.10;;;;;;;-0.07;100.00;99852.84;1711070;82;21068;-83
2022/03/04 05:07:10;;;;;;;20.92;12.65;;;;;;;-0.05;100.00;99854.89;1718588;81;21033;-81
2022/03/04 05:09:37;;;;;;;22.90;12.65;;;;;;;-0.04;100.00;99856.98;1727028;81;21188;-82
2022/03/04 05:12:05;;;;;;;20.50;12.18;;;;;;;-0.02;100.00;99853.46;1673117;82;21140;-82
2022/03/04 05:14:31;;;;;;;18.40;11.65;;;;;;;0.00;100.00;99853.41;1701233;82;21068;-81
2022/03/04 05:16:58;;;;;;;21.65;13.10;;;;;;;0.01;100.00;99861.45;1716570;81;21050;-81
2022/03/04 05:19:25;;;;;;;19.25;11.70;;;;;;;0.02;100.00;99856.72;1700323;81;21029;-80
2022/03/04 05:21:51;;;;;;;22.42;13.53;;;;;;;0.03;100.00;99868.62;1723207;81;21531;-84
2022/03/04 05:24:18;;;;;;;19.82;9.95;;;;;;;0.04;100.00;99863.07;1723106;81;21129;-80
2022/03/04 05:26:45;;;;;;;21.02;13.13;;;;;;;0.05;100.00;99871.11;1700410;81;21037;-81
2022/03/04 05:29:13;;;;;;;20.32;13.20;;;;;;;0.04;100.00;99868.19;1723394;81;21877;-80
2022/03/04 05:31:42;;;;;;;20.60;12.80;;;;;;;0.06;100.00;99862.53;1723077;81;21029;-82
2022/03/04 05:34:10;;;;;;;17.23;11.70;;;;;;;0.07;100.00;99864.20;1696934;83;21084;-83
2022/03/04 05:36:40;;;;;;;21.35;13.18;;;;;;;0.07;100.00;99880.84;1713727;82;21100;-83
2022/03/04 05:39:10;;;;;;;21.10;12.98;;;;;;;0.08;100.00;99878.20;1714631;82;21549;-81
2022/03/04 05:41:41;;;;;;;19.70;12.98;;;;;;;0.11;100.00;99878.08;1720254;82;37935;-83
2022/03/04 05:44:08;;;;;;;22.73;13.75;;;;;;;0.14;100.00;99878.39;1698125;83;21072;-84
2022/03/04 05:46:35;;;;;;;20.37;13.13;;;;;;;0.15;100.00;99877.50;1719743;82;21508;-84
2022/03/04 05:49:03;;;;;;;19.90;12.82;;;;;;;0.17;100.00;99880.83;1718874;83;21021;-83
2022/03/04 05:51:30;;;;;;;20.70;12.75;;;;;;;0.17;100.00;99883.82;1696504;83;21096;-84
2022/03/04 05:53:57;;;;;;;22.80;12.95;;;;;;;0.18;100.00;99886.34;1695180;83;21606;-85
2022/03/04 05:56:26;;;;;;;20.70;12.00;;;;;;;0.18;100.00;99894.02;1711114;83;21089;-86
2022/03/04 05:58:53;;;;;;;21.33;13.48;;;;;;;0.20;100.00;99903.73;1704379;83;21182;-86
2022/03/04 06:01:20;;;;;;;22.45;12.85;;;;;;;0.20;100.00;99903.73;1719614;83;21689;-85
2022/03/04 06:03:46;;;;;;;20.70;12.33;;;;;;;0.20;100.00;99902.91;1696644;83;21852;-85
2022/03/04 06:06:14;;;;;;;24.05;13.50;;;;;;;0.21;100.00;99913.08;1712274;82;21018;-87
2022/03/04 06:08:41;;;;;;;23.32;12.60;;;;;;;0.22;100.00;99917.30;1677578;83;21112;-85
2022/03/04 06:11:10;;;;;;;25.32;13.03;;;;;;;0.24;100.00;99923.20;1703397;83;21113;-87
2022/03/04 06:13:39;;;;;;;22.17;13.28;;;;;;;0.26;100.00;99921.84;1714168;82;21070;-84
2022/03/04 06:16:06;;;;;;;20.90;13.22;;;;;;;0.28;100.00;99917.03;1719426;82;21101;-84
2022/03/04 06:18:33;;;;;;;18.65;11.75;;;;;;;0.32;100.00;99934.41;1709808;83;20999;-84
2022/03/04 06:21:00;;;;;;;21.05;14.00;;;;;;;0.31;100.00;99930.99;1705208;82;21054;-85
2022/03/04 06:23:26;;;;;;;22.30;14.18;;;;;;;0.33;100.00;99929.64;1695350;83;21190;-86
2022/03/04 06:25:55;;;;;;;32.33;20.90;;;;;;;0.34;100.00;99929.20;1673407;83;20987;-84
2022/03/04 06:28:22;;;;;;;23.62;15.30;;;;;;;0.38;100.00;99934.56;1724986;82;21090;-88
2022/03/04 06:30:49;;;;;;;19.25;12.33;;;;;;;0.39;100.00;99924.27;1710335;82;21470;-87
2022/03/04 06:33:32;;;;;;;20.12;13.53;;;;;;;0.44;100.00;99924.07;1708397;82;21056;-86
2022/03/04 06:36:06;;;;;;;20.30;12.78;;;;;;;0.48;100.00;99934.55;1679285;82;21163;-87
2022/03/04 06:38:36;;;;;;;23.20;13.95;;;;;;;0.50;100.00;99930.63;1675746;83;21562;-86
2022/03/04 06:41:03;;;;;;;18.62;12.18;;;;;;;0.51;100.00;99931.86;1701778;82;21175;-88
2022/03/04 06:43:30;;;;;;;20.35;13.10;;;;;;;0.54;100.00;99933.45;1701748;82;21021;-87
2022/03/04 06:45:58;;;;;;;18.75;10.80;;;;;;;0.57;100.00;99932.87;1701341;82;21124;-89
2022/03/04 06:48:26;;;;;;;16.40;11.05;;;;;;;0.59;100.00;99919.55;1703006;82;21112;-89
2022/03/04 06:50:53;;;;;;;21.20;12.30;;;;;;;0.64;100.00;99927.03;1704495;81;21077;-89
2022/03/04 06:53:20;;;;;;;18.02;11.90;;;;;;;0.68;100.00;99929.81;1701593;82;21049;-89
2022/03/04 06:55:48;;;;;;;19.42;12.33;;;;;;;0.73;100.00;99927.05;1702059;82;21562;-88
2022/03/04 06:58:16;;;;;;;18.77;11.95;;;;;;;0.76;100.00;99928.20;1701639;82;21096;-88
2022/03/04 07:00:44;;;;;;;15.30;9.70;;;;;;;0.78;100.00;99932.79;1701405;82;21204;-88
2022/03/04 07:03:12;;;;;;;16.17;10.25;;;;;;;0.76;100.00;99921.34;1702585;82;21578;-89
2022/03/04 07:05:39;;;;;;;18.20;11.80;;;;;;;0.74;100.00;99918.00;1673571;82;21096;-88
2022/03/04 07:08:07;;;;;;;17.60;12.07;;;;;;;0.76;100.00;99925.64;1704584;82;21084;-88
2022/03/04 07:10:35;;;;;;;18.23;10.35;;;;;;;0.81;100.00;99921.56;1702089;82;22113;-89
2022/03/04 07:13:02;;;;;;;12.40;9.88;;;;;;;0.87;100.00;99925.97;1703073;82;21181;-90
2022/03/04 07:15:29;;;;;;;16.62;10.23;;;;;;;0.88;100.00;99922.50;1662940;84;21078;-89
2022/03/04 07:17:56;;;;;;;16.32;10.38;;;;;;;0.89;100.00;99906.23;1695942;82;21073;-90
2022/03/04 07:20:25;;;;;;;15.55;11.20;;;;;;;0.92;100.00;99912.47;1698829;82;21038;-87
2022/03/04 07:22:53;;;;;;;18.05;11.40;;;;;;;0.92;100.00;99909.91;1698183;83;21057;-88
2022/03/04 07:25:20;;;;;;;12.28;8.33;;;;;;;0.98;100.00;99913.11;1719172;83;21780;-85
2022/03/04 07:27:47;;;;;;;15.32;10.53;;;;;;;1.02;100.00;99906.92;1720301;82;21041;-88
2022/03/04 07:30:16;;;;;;;12.78;8.63;;;;;;;1.04;100.00;99907.69;1720557;81;21551;-86
2022/03/04 07:32:44;;;;;;;13.32;6.87;;;;;;;1.05;100.00;99915.77;1703414;82;21235;-86
2022/03/04 07:35:12;;;;;;;16.60;10.85;;;;;;;1.05;100.00;99906.80;1710548;82;21033;-87
2022/03/04 07:37:41;;;;;;;17.02;10.95;;;;;;;1.08;100.00;99920.77;1715109;82;22274;-88
2022/03/04 07:40:12;;;;;;;15.55;10.70;;;;;;;1.08;100.00;99916.92;1699004;83;21095;-88
2022/03/04 07:42:41;;;;;;;17.67;11.68;;;;;;;1.07;100.00;99921.20;1700406;83;21109;-89
2022/03/04 07:45:10;;;;;;;16.35;11.57;;;;;;;1.06;100.00;99930.26;1700460;82;21068;-88
2022/03/04 07:47:41;;;;;;;17.50;10.78;;;;;;;1.05;100.00;99928.59;1701798;83;21124;-87
2022/03/04 07:50:12;;;;;;;17.15;10.85;;;;;;;1.04;100.00;99926.46;1693167;83;21798;-87
2022/03/04 07:52:41;;;;;;;17.20;11.80;;;;;;;1.03;100.00;99929.95;1689554;83;21081;-88
2022/03/04 07:55:12;;;;;;;16.12;10.28;;;;;;;1.04;100.00;99928.20;1691870;83;21045;-86
2022/03/04 07:57:39;;;;;;;15.63;10.85;;;;;;;1.04;100.00;99932.87;1655066;84;21057;-88
2022/03/04 08:00:10;;;;;;;17.10;11.63;;;;;;;1.04;100.00;99925.64;1691405;83;21037;-85
2022/03/04 08:02:40;;;;;;;15.28;10.75;;;;;;;1.03;100.00;99936.80;1710918;82;22155;-85
2022/03/04 08:05:11;;;;;;;17.25;10.40;;;;;;;1.02;100.00;99935.13;1703455;82;21125;-87
2022/03/04 08:07:40;;;;;;;16.02;11.38;;;;;;;1.00;100.00;99936.95;1692021;83;21441;-88
2022/03/04 08:10:10;;;;;;;15.08;9.58;;;;;;;1.00;100.00;99939.52;1704398;82;21088;-88
2022/03/04 08:12:39;;;;;;;14.58;10.85;;;;;;;1.00;100.00;99950.59;1719991;82;21156;-86
2022/03/04 08:15:11;;;;;;;16.30;10.80;;;;;;;0.98;100.00;99953.67;1718724;82;22038;-88
2022/03/04 08:17:44;;;;;;;16.23;10.58;;;;;;;0.99;100.00;99955.80;1689473;82;21044;-87
2022/03/04 08:20:13;;;;;;;15.60;10.90;;;;;;;1.00;100.00;99963.87;1695657;83;21040;-87
2022/03/04 08:22:40;;;;;;;15.58;11.68;;;;;;;1.01;100.00;99963.80;1714575;82;21092;-87
2022/03/04 08:25:10;;;;;;;16.97;12.20;;;;;;;1.01;100.00;99968.08;1714669;82;21036;-86
2022/03/04 08:27:40;;;;;;;16.50;11.53;;;;;;;1.00;100.00;99972.39;1714029;82;21273;-89
2022/03/04 08:30:10;;;;;;;16.32;11.53;;;;;;;1.02;100.00;99978.28;1714765;82;21006;-88
2022/03/04 08:32:38;;;;;;;16.70;10.32;;;;;;;1.03;100.00;99972.27;1714476;82;21123;-90
2022/03/04 08:35:06;;;;;;;16.12;12.20;;;;;;;1.02;100.00;99978.28;1714851;82;21107;-89
2022/03/04 08:37:33;;;;;;;15.88;11.38;;;;;;;1.02;100.00;99980.00;1713702;82;21092;-89
2022/03/04 08:40:02;;;;;;;15.90;10.70;;;;;;;1.01;100.00;99973.20;1714115;82;21253;-88
2022/03/04 08:42:30;;;;;;;16.87;10.58;;;;;;;1.03;100.00;99980.39;1714287;82;21109;-88
2022/03/04 08:44:58;;;;;;;13.78;9.45;;;;;;;1.03;100.00;99971.41;1714687;82;21056;-88
2022/03/04 08:47:25;;;;;;;14.50;10.53;;;;;;;1.03;100.00;99976.54;1714630;82;21025;-87
2022/03/04 08:49:52;;;;;;;15.05;9.75;;;;;;;1.05;100.00;99970.44;1714631;82;21570;-87
2022/03/04 08:52:20;;;;;;;14.98;10.50;;;;;;;1.07;100.00;99971.67;1714511;82;21100;-87
2022/03/04 08:54:47;;;;;;;14.03;10.38;;;;;;;1.08;100.00;99979.28;1714702;82;21052;-87
2022/03/04 08:57:14;;;;;;;14.38;9.93;;;;;;;1.09;100.00;99970.69;1714578;82;21119;-88
2022/03/04 08:59:41;;;;;;;13.20;9.85;;;;;;;1.11;100.00;99974.45;1714488;82;22354;-87
2022/03/04 09:02:09;;;;;;;16.12;10.68;;;;;;;1.17;100.00;99974.63;1714617;82;21084;-88
2022/03/04 09:04:36;;;;;;;14.43;11.10;;;;;;;1.20;100.00;99974.50;1714361;82;21233;-88
2022/03/04 09:07:06;;;;;;;17.70;11.12;;;;;;;1.22;100.00;99976.52;1714468;82;21064;-87
2022/03/04 09:09:34;;;;;;;13.40;9.90;;;;;;;1.25;100.00;99975.92;1711437;82;21539;-87
2022/03/04 09:12:01;;;;;;;13.30;10.20;;;;;;;1.28;100.00;99976.69;1714473;82;21064;-85
2022/03/04 09:14:28;;;;;;;13.08;9.63;;;;;;;1.29;100.00;99980.92;1714741;82;21097;-88
2022/03/04 09:16:55;;;;;;;14.98;9.78;;;;;;;1.31;100.00;99979.13;1715017;82;21137;-86
2022/03/04 09:19:22;;;;;;;14.63;9.98;;;;;;;1.33;100.00;99973.45;1708783;81;21163;-86
2022/03/04 09:21:48;;;;;;;15.75;10.65;;;;;;;1.33;100.00;99975.59;1685860;83;21096;-88
2022/03/04 09:24:16;;;;;;;15.58;10.98;;;;;;;1.35;100.00;99976.78;1685877;83;21004;-86
2022/03/04 09:26:43;;;;;;;19.05;10.70;;;;;;;1.36;100.00;99971.58;1686009;83;21542;-87
2022/03/04 09:29:10;;;;;;;14.73;10.28;;;;;;;1.37;100.00;99969.86;1685327;83;21439;-86
2022/03/04 09:31:38;;;;;;;16.12;10.50;;;;;;;1.39;100.00;99975.75;1685999;83;21111;-87
2022/03/04 09:34:04;;;;;;;13.32;9.43;;;;;;;1.42;100.00;99970.45;1686016;83;21055;-88
2022/03/04 09:36:31;;;;;;;13.45;9.53;;;;;;;1.42;100.00;99966.61;1709296;83;21077;-86
2022/03/04 09:38:59;;;;;;;13.80;10.18;;;;;;;1.41;100.00;99980.34;1728863;83;21136;-87
2022/03/04 09:41:26;;;;;;;14.13;9.73;;;;;;;1.44;100.00;99967.38;1728676;82;21764;-88
2022/03/04 09:44:08;;;;;;;16.60;10.60;;;;;;;1.45;100.00;99965.19;1725295;82;21064;-88
2022/03/04 09:46:37;;;;;;;14.28;9.68;;;;;;;1.45;100.00;99971.61;1676655;81;21045;-88
2022/03/04 09:49:04;;;;;;;13.90;9.85;;;;;;;1.46;100.00;99972.42;1713425;82;21072;-87
2022/03/04 09:51:31;;;;;;;13.90;10.18;;;;;;;1.45;100.00;99970.33;1704718;82;21045;-87
2022/03/04 09:53:58;;;;;;;13.40;10.03;;;;;;;1.45;100.00;99970.33;1729087;82;21808;-87
2022/03/04 09:56:27;;;;;;;13.62;9.98;;;;;;;1.46;100.00;99976.27;1703217;81;21070;-88
2022/03/04 09:58:56;;;;;;;14.80;10.25;;;;;;;1.46;100.00;99975.84;1720507;82;22046;-89
2022/03/04 10:01:24;;;;;;;14.93;10.08;;;;;;;1.46;100.00;99979.69;1724115;82;21032;-88
2022/03/04 10:03:55;;;;;;;14.63;10.40;;;;;;;1.48;100.00;99979.17;1700169;82;21077;-89
2022/03/04 10:06:24;;;;;;;13.38;9.48;;;;;;;1.50;100.00;99978.63;1676764;82;21123;-88
2022/03/04 10:08:53;;;;;;;13.88;8.90;;;;;;;1.50;100.00;99972.21;1675388;84;21026;-88
2022/03/04 10:11:29;;;;;;;14.30;9.53;;;;;;;1.52;100.00;99972.16;1656844;85;21071;-90
2022/03/04 10:14:00;;;;;;;17.42;10.93;;;;;;;1.51;100.00;99967.92;1656967;85;21584;-88
2022/03/04 10:16:30;;;;;;;14.38;10.30;;;;;;;1.52;100.00;99962.71;1662354;84;21068;-89
2022/03/04 10:19:20;;;;;;;15.98;10.68;;;;;;;1.53;100.00;99960.53;1723556;81;21340;-88
2022/03/04 10:21:56;;;;;;;15.43;9.98;;;;;;;1.54;100.00;99949.80;1714182;82;21022;-87
2022/03/04 10:24:36;;;;;;;17.23;10.88;;;;;;;1.54;100.00;99941.66;1713957;82;21033;-88
2022/03/04 10:27:15;;;;;;;14.90;9.87;;;;;;;1.58;100.00;99946.20;1717644;83;21054;-88
2022/03/04 10:29:48;;;;;;;13.62;10.18;;;;;;;1.60;100.00;99935.41;1718240;81;21045;-87
2022/03/04 10:32:26;;;;;;;15.98;10.75;;;;;;;1.62;100.00;99928.44;1714490;82;21258;-88
2022/03/04 10:35:07;;;;;;;15.30;10.65;;;;;;;1.64;100.00;99928.39;1712890;82;21046;-87
2022/03/04 10:37:56;;;;;;;17.27;11.68;;;;;;;1.65;100.00;99926.17;1718136;82;21084;-88
2022/03/04 10:40:34;;;;;;;16.23;11.00;;;;;;;1.65;100.00;99929.59;1700151;82;21187;-87
2022/03/04 10:43:08;;;;;;;16.15;9.85;;;;;;;1.67;100.00;99928.22;1676959;83;21136;-89
2022/03/04 10:45:43;;;;;;;16.97;10.30;;;;;;;1.68;100.00;99929.88;1685354;84;21817;-89
2022/03/04 10:48:20;;;;;;;16.75;10.78;;;;;;;1.69;100.00;99928.98;1669264;83;21109;-88
2022/03/04 10:50:57;;;;;;;19.87;11.68;;;;;;;1.70;100.00;99933.21;1714155;82;21637;-88
2022/03/04 10:53:30;;;;;;;17.87;11.50;;;;;;;1.70;100.00;99938.34;1714616;82;21049;-87
2022/03/04 10:56:02;;;;;;;17.35;10.82;;;;;;;1.69;100.00;99925.95;1712074;82;21072;-88
2022/03/04 10:58:33;;;;;;;44.73;10.75;;;;;;;1.70;100.00;99930.65;1703161;82;21308;-89
2022/03/04 11:01:12;;;;;;;14.33;8.95;;;;;;;1.70;100.00;99929.36;1720480;82;21002;-88
2022/03/04 11:03:42;;;;;;;14.85;7.70;;;;;;;1.70;100.00;99933.21;1719769;82;21085;-88
2022/03/04 11:06:15;;;;;;;16.00;10.25;;;;;;;1.69;100.00;99935.40;1701216;83;21476;-90
2022/03/04 11:08:44;;;;;;;15.43;10.48;;;;;;;1.67;100.00;99926.50;1718173;83;21058;-89
2022/03/04 11:11:12;;;;;;;16.62;11.33;;;;;;;1.67;100.00;99929.50;1704035;83;21760;-89
2022/03/04 11:13:42;;;;;;;14.47;10.28;;;;;;;1.67;100.00;99932.06;1690492;83;21250;-89
2022/03/04 11:16:09;;;;;;;17.90;10.50;;;;;;;1.70;100.00;99928.90;1693935;83;21038;-88
2022/03/04 11:18:38;;;;;;;16.12;10.70;;;;;;;1.80;100.00;99932.30;1718266;82;21076;-89